Guilford Center, New York
Current Conditions -  °F | °C
As of 12:53 PM on Sunday 23 Nov 2014 (Local Time) from KBGM Reporting Station
Light Rain Light Rain  
Wind Chill: 40°   Ceiling: 3600
Heat Index: 44°   Visibility: 8mi
Dew Point: 35°   Wind: 7mph
Humidity: 71%   Direction: 220°SW
Pressure: 30.08"   Gusts: NA
Location:  42.4316°N, 75.4759°W
Report Text: KBGM 231753Z 22006KT 8SM -RA OVC036 07/02 A3008 RMK AO2 SLP196 P0001 60001 T00670017 10089 20050 58005
Loading
Personal Weather Stations






























Interactive Weather Map New forecast layout! Learn more

10-Day Weather Forecast

Advertisements
Track Severe Weather on mobile